Time;durP1;ratioP1;P1;durP2;ratioP2;P2;SDS_P1;SDS_P2;PMS_P1;PMS_P2;Temp;Humidity;BMP_temperature;BMP_pressure;BME280_temperature;BME280_humidity;BME280_pressure;Samples;Min_cycle;Max_cycle;Signal;HPM_P1;HPM_P2
2021/09/28 00:00:12;;;;;;;1.98;0.88;;;20.70;99.90;;;;;;4936537;29;20209;-67
2021/09/28 00:02:38;;;;;;;2.22;0.80;;;20.70;99.90;;;;;;4935992;29;20119;-66
2021/09/28 00:05:04;;;;;;;2.28;0.70;;;20.70;99.90;;;;;;4919365;29;20118;-66
2021/09/28 00:07:30;;;;;;;3.35;0.70;;;20.70;99.90;;;;;;4936100;29;20024;-66
2021/09/28 00:09:55;;;;;;;1.75;0.73;;;20.70;99.90;;;;;;4936589;29;20039;-67
2021/09/28 00:12:21;;;;;;;2.42;0.75;;;20.70;99.90;;;;;;4936608;29;20020;-67
2021/09/28 00:14:47;;;;;;;2.33;0.63;;;20.70;99.90;;;;;;4935993;29;20067;-66
2021/09/28 00:17:13;;;;;;;3.35;1.08;;;20.70;99.90;;;;;;4935541;29;20035;-66
2021/09/28 00:19:40;;;;;;;3.17;0.70;;;20.70;99.90;;;;;;4936030;29;20072;-66
2021/09/28 00:22:06;;;;;;;2.35;0.57;;;20.70;99.90;;;;;;4935969;29;20568;-66
2021/09/28 00:24:33;;;;;;;2.15;0.57;;;20.70;99.90;;;;;;4935679;29;20540;-67
2021/09/28 00:26:59;;;;;;;1.92;0.52;;;20.60;99.90;;;;;;4936330;29;20031;-66
2021/09/28 00:29:25;;;;;;;1.83;0.68;;;20.70;99.90;;;;;;4936329;29;20030;-66
2021/09/28 00:31:51;;;;;;;2.83;0.68;;;20.70;99.90;;;;;;4935117;29;20028;-66
2021/09/28 00:34:17;;;;;;;3.00;0.88;;;20.60;99.90;;;;;;4935851;29;20111;-67
2021/09/28 00:36:43;;;;;;;1.88;0.68;;;20.60;99.90;;;;;;4918411;29;20473;-66
2021/09/28 00:39:08;;;;;;;2.35;0.70;;;20.60;99.90;;;;;;4934541;29;20027;-66
2021/09/28 00:41:34;;;;;;;1.48;0.60;;;20.60;99.90;;;;;;4935522;29;20432;-66
2021/09/28 00:43:59;;;;;;;2.63;0.80;;;20.60;99.90;;;;;;4935823;29;20483;-66
2021/09/28 00:46:26;;;;;;;3.03;0.77;;;20.60;99.90;;;;;;4935608;29;20038;-66
2021/09/28 00:48:52;;;;;;;1.65;0.75;;;20.60;99.90;;;;;;4935967;29;20064;-66
2021/09/28 00:51:19;;;;;;;2.30;0.90;;;20.60;99.90;;;;;;4935563;29;20028;-66
2021/09/28 00:53:47;;;;;;;2.30;0.50;;;20.60;99.90;;;;;;4935298;29;20406;-66
2021/09/28 00:56:15;;;;;;;2.00;0.80;;;20.60;99.90;;;;;;4935424;29;20543;-66
2021/09/28 00:58:41;;;;;;;2.15;0.70;;;20.60;99.90;;;;;;4935223;29;20075;-66
2021/09/28 01:01:09;;;;;;;2.40;0.80;;;20.60;99.90;;;;;;4935463;29;20027;-66
2021/09/28 01:03:35;;;;;;;1.55;0.70;;;20.60;99.90;;;;;;4934607;29;20027;-66
2021/09/28 01:06:01;;;;;;;2.05;0.80;;;20.60;99.90;;;;;;4935270;29;20103;-66
2021/09/28 01:08:28;;;;;;;1.58;0.63;;;20.60;99.90;;;;;;4918183;29;20465;-67
2021/09/28 01:10:55;;;;;;;1.75;0.47;;;20.60;99.90;;;;;;4935521;29;20028;-67
2021/09/28 01:13:21;;;;;;;2.15;0.80;;;20.60;99.90;;;;;;4935280;29;20032;-68
2021/09/28 01:15:59;;;;;;;2.90;0.70;;;20.60;99.90;;;;;;4934853;29;20042;-67
2021/09/28 01:18:31;;;;;;;1.77;0.70;;;20.50;99.90;;;;;;4935110;29;20096;-66
2021/09/28 01:20:58;;;;;;;1.52;0.60;;;20.50;99.90;;;;;;4935025;29;20016;-66
2021/09/28 01:23:24;;;;;;;1.63;0.75;;;20.50;99.90;;;;;;4935296;29;20019;-67
2021/09/28 01:25:50;;;;;;;2.22;0.82;;;20.50;99.90;;;;;;4934620;29;20552;-67
2021/09/28 01:28:16;;;;;;;1.70;0.60;;;20.50;99.90;;;;;;4934865;29;20039;-67
2021/09/28 01:30:42;;;;;;;2.38;0.70;;;20.50;99.90;;;;;;4934606;29;20102;-67
2021/09/28 01:33:08;;;;;;;2.15;0.73;;;20.50;99.90;;;;;;4934524;29;20032;-67
2021/09/28 01:35:38;;;;;;;1.58;0.50;;;20.50;99.90;;;;;;4934601;29;20044;-68
2021/09/28 01:38:04;;;;;;;1.92;0.63;;;20.40;99.90;;;;;;4934415;29;20237;-67
2021/09/28 01:40:30;;;;;;;2.28;0.60;;;20.50;99.90;;;;;;4934480;29;20418;-67
2021/09/28 01:42:56;;;;;;;2.28;0.70;;;20.50;99.90;;;;;;4933535;29;20019;-67
2021/09/28 01:45:21;;;;;;;2.38;0.90;;;20.40;99.90;;;;;;4934863;29;20035;-66
2021/09/28 01:47:47;;;;;;;2.00;0.70;;;20.40;99.90;;;;;;4933832;29;20031;-67
2021/09/28 01:50:13;;;;;;;2.80;0.70;;;20.40;99.90;;;;;;4934650;29;20023;-67
2021/09/28 01:52:38;;;;;;;1.13;0.50;;;20.40;99.90;;;;;;4934237;29;20023;-67
2021/09/28 01:55:06;;;;;;;2.33;0.40;;;20.40;99.90;;;;;;4934339;29;20043;-67
2021/09/28 01:57:33;;;;;;;1.42;0.60;;;20.40;99.90;;;;;;4934174;29;20027;-67
2021/09/28 01:59:59;;;;;;;2.47;0.50;;;20.40;99.90;;;;;;4934348;29;20024;-67
2021/09/28 02:02:25;;;;;;;1.15;0.47;;;20.40;99.90;;;;;;4929724;29;20019;-65
2021/09/28 02:04:52;;;;;;;1.75;0.73;;;20.40;99.90;;;;;;4933889;29;20024;-66
2021/09/28 02:07:17;;;;;;;1.77;0.57;;;20.40;99.90;;;;;;4933929;29;20087;-65
2021/09/28 02:09:43;;;;;;;1.38;0.47;;;20.40;99.90;;;;;;4917039;29;20028;-66
2021/09/28 02:12:08;;;;;;;1.48;0.50;;;20.40;99.90;;;;;;4934303;29;20388;-67
2021/09/28 02:14:34;;;;;;;1.38;0.50;;;20.40;99.90;;;;;;4933565;29;20051;-66
2021/09/28 02:17:00;;;;;;;1.73;0.50;;;20.30;99.90;;;;;;4933802;29;20476;-65
2021/09/28 02:19:25;;;;;;;2.85;0.65;;;20.40;99.90;;;;;;4934190;29;20042;-64
2021/09/28 02:21:51;;;;;;;2.80;0.77;;;20.40;99.90;;;;;;4934138;29;20028;-65
2021/09/28 02:24:17;;;;;;;1.13;0.55;;;20.40;99.90;;;;;;4933817;29;20027;-64
2021/09/28 02:26:43;;;;;;;1.25;0.70;;;20.40;99.90;;;;;;4933478;29;20096;-65
2021/09/28 02:29:10;;;;;;;2.08;0.57;;;20.30;99.90;;;;;;4934068;29;20028;-66
2021/09/28 02:31:37;;;;;;;1.13;0.52;;;20.30;99.90;;;;;;4933136;29;20040;-65
2021/09/28 02:34:06;;;;;;;1.67;0.65;;;20.30;99.90;;;;;;4933626;29;20099;-67
2021/09/28 02:36:33;;;;;;;1.80;0.68;;;20.30;99.90;;;;;;4933753;29;20035;-66
2021/09/28 02:38:59;;;;;;;2.17;0.65;;;20.30;99.90;;;;;;4917130;29;20020;-66
2021/09/28 02:41:24;;;;;;;2.50;0.85;;;20.30;99.90;;;;;;4934033;29;20368;-66
2021/09/28 02:43:50;;;;;;;2.38;0.70;;;20.30;99.90;;;;;;4933411;29;20039;-66
2021/09/28 02:46:16;;;;;;;1.25;0.60;;;20.30;99.90;;;;;;4933765;29;20391;-66
2021/09/28 02:48:41;;;;;;;1.65;0.50;;;20.30;99.90;;;;;;4932902;29;20046;-66
2021/09/28 02:51:07;;;;;;;1.33;0.52;;;20.30;99.90;;;;;;4933434;29;20027;-66
2021/09/28 02:53:32;;;;;;;1.98;0.60;;;20.20;99.90;;;;;;4933650;29;20034;-67
2021/09/28 02:55:58;;;;;;;2.75;0.80;;;20.20;99.90;;;;;;4935773;29;20361;-67
2021/09/28 02:58:24;;;;;;;2.15;0.63;;;20.20;99.90;;;;;;4937865;29;20391;-66
2021/09/28 03:00:50;;;;;;;1.88;0.65;;;20.20;99.90;;;;;;4936953;29;20083;-66
2021/09/28 03:03:15;;;;;;;1.75;0.63;;;20.20;99.90;;;;;;4935543;29;20083;-65
2021/09/28 03:05:41;;;;;;;1.35;0.50;;;20.20;99.90;;;;;;4937138;29;20068;-66
2021/09/28 03:08:07;;;;;;;2.88;0.50;;;20.20;99.90;;;;;;4937545;29;20031;-67
2021/09/28 03:10:33;;;;;;;2.20;0.70;;;20.20;99.90;;;;;;4937162;29;20020;-66
2021/09/28 03:12:58;;;;;;;2.95;0.60;;;20.20;99.90;;;;;;4937151;29;20036;-65
2021/09/28 03:15:24;;;;;;;1.13;0.60;;;20.20;99.90;;;;;;4937426;29;20090;-67
2021/09/28 03:17:50;;;;;;;2.42;0.50;;;20.20;99.90;;;;;;4937132;29;20102;-66
2021/09/28 03:20:16;;;;;;;1.20;0.52;;;20.20;99.90;;;;;;4937270;29;20392;-66
2021/09/28 03:22:41;;;;;;;1.48;0.60;;;20.20;99.90;;;;;;4935335;29;20019;-66
2021/09/28 03:25:07;;;;;;;1.58;0.60;;;20.10;99.90;;;;;;4937240;29;20039;-68
2021/09/28 03:27:33;;;;;;;2.38;0.80;;;20.10;99.90;;;;;;4936332;29;20027;-67
2021/09/28 03:29:59;;;;;;;1.35;0.50;;;20.10;99.90;;;;;;4936999;29;20484;-65
2021/09/28 03:32:25;;;;;;;1.65;0.55;;;20.10;99.90;;;;;;4937150;29;20063;-67
2021/09/28 03:34:50;;;;;;;1.30;0.60;;;20.10;99.90;;;;;;4936772;29;20028;-67
2021/09/28 03:37:16;;;;;;;1.00;0.40;;;20.10;99.90;;;;;;4937003;29;20035;-66
2021/09/28 03:39:42;;;;;;;1.38;0.50;;;20.10;99.90;;;;;;4936558;29;20027;-66
2021/09/28 03:42:07;;;;;;;1.30;0.50;;;20.10;99.90;;;;;;4936665;29;20381;-65
2021/09/28 03:44:33;;;;;;;1.65;0.70;;;20.10;99.90;;;;;;4936094;29;20028;-66
2021/09/28 03:46:59;;;;;;;1.20;0.50;;;20.10;99.90;;;;;;4936488;29;20023;-66
2021/09/28 03:49:24;;;;;;;1.67;0.35;;;20.10;99.90;;;;;;4936580;29;20038;-66
2021/09/28 03:51:50;;;;;;;1.80;0.52;;;20.10;99.90;;;;;;4936604;29;20376;-65
2021/09/28 03:54:16;;;;;;;1.33;0.55;;;20.10;99.90;;;;;;4936406;29;20043;-66
2021/09/28 03:56:41;;;;;;;1.77;0.70;;;20.10;99.90;;;;;;4935895;29;20027;-66
2021/09/28 03:59:07;;;;;;;0.80;0.40;;;20.10;99.90;;;;;;4936509;29;20030;-67
2021/09/28 04:01:33;;;;;;;1.38;0.60;;;20.10;99.90;;;;;;4936375;29;20519;-67
2021/09/28 04:03:59;;;;;;;1.38;0.45;;;20.00;99.90;;;;;;4936191;29;20476;-67
2021/09/28 04:06:25;;;;;;;2.47;0.70;;;20.00;99.90;;;;;;4936062;29;20039;-66
2021/09/28 04:08:51;;;;;;;2.33;0.70;;;20.00;99.90;;;;;;4936165;29;20074;-70
2021/09/28 04:11:17;;;;;;;5.43;0.60;;;20.00;99.90;;;;;;4936347;29;20024;-69
2021/09/28 04:13:46;;;;;;;1.13;0.60;;;20.00;99.90;;;;;;4935339;29;20027;-70
2021/09/28 04:16:12;;;;;;;1.38;0.50;;;20.00;99.90;;;;;;4936480;29;20043;-66
2021/09/28 04:18:37;;;;;;;2.08;0.70;;;20.00;99.90;;;;;;4935215;29;20024;-70
2021/09/28 04:21:03;;;;;;;2.05;0.65;;;20.00;99.90;;;;;;4919238;29;20144;-69
2021/09/28 04:23:29;;;;;;;1.52;0.68;;;20.00;99.90;;;;;;4935947;29;20509;-70
2021/09/28 04:25:54;;;;;;;3.42;0.90;;;20.00;99.90;;;;;;4936093;29;20066;-69
2021/09/28 04:28:20;;;;;;;2.05;0.55;;;20.00;99.90;;;;;;4928687;29;20060;-69
2021/09/28 04:30:46;;;;;;;1.25;0.60;;;20.00;99.90;;;;;;4930348;29;20039;-67
2021/09/28 04:33:11;;;;;;;2.05;0.65;;;20.00;99.90;;;;;;4935863;29;20391;-68
2021/09/28 04:35:37;;;;;;;2.30;0.63;;;19.90;99.90;;;;;;4935667;29;20046;-67
2021/09/28 04:38:03;;;;;;;1.13;0.40;;;20.00;99.90;;;;;;4932457;29;21577;-69
2021/09/28 04:40:28;;;;;;;2.95;0.60;;;19.90;99.90;;;;;;4924016;29;20035;-67
2021/09/28 04:42:54;;;;;;;3.88;0.82;;;19.90;99.90;;;;;;4936071;29;20028;-68
2021/09/28 04:45:20;;;;;;;1.58;0.65;;;19.90;99.90;;;;;;4935309;29;20016;-68
2021/09/28 04:47:45;;;;;;;2.85;0.70;;;19.90;99.90;;;;;;4928202;29;20339;-67
2021/09/28 04:50:11;;;;;;;2.28;0.68;;;20.00;99.90;;;;;;4917560;29;20169;-67
2021/09/28 04:52:37;;;;;;;0.77;0.43;;;19.90;99.90;;;;;;4916401;29;20048;-67
2021/09/28 04:55:07;;;;;;;2.25;0.65;;;19.90;99.90;;;;;;4916408;29;20036;-67
2021/09/28 04:57:32;;;;;;;1.35;0.60;;;19.90;99.90;;;;;;4933580;29;20047;-67
2021/09/28 04:59:58;;;;;;;2.90;0.60;;;19.90;99.90;;;;;;4935479;29;20066;-67
2021/09/28 05:02:24;;;;;;;2.15;0.60;;;19.90;99.90;;;;;;4935745;29;20024;-67
2021/09/28 05:04:50;;;;;;;1.92;0.50;;;19.90;99.90;;;;;;4920734;29;20039;-67
2021/09/28 05:07:16;;;;;;;1.40;0.70;;;19.90;99.90;;;;;;4916401;29;20031;-67
2021/09/28 05:09:43;;;;;;;3.97;0.60;;;19.90;99.90;;;;;;4922717;29;20362;-67
2021/09/28 05:12:09;;;;;;;1.20;0.47;;;19.90;99.90;;;;;;4935109;29;20374;-67
2021/09/28 05:14:34;;;;;;;2.15;0.70;;;19.90;99.90;;;;;;4922358;29;20036;-67
2021/09/28 05:17:00;;;;;;;1.67;0.60;;;19.90;99.90;;;;;;4920212;29;20116;-67
2021/09/28 05:19:26;;;;;;;1.00;0.40;;;19.90;99.90;;;;;;4929855;29;20043;-67
2021/09/28 05:21:52;;;;;;;2.35;0.50;;;19.90;99.90;;;;;;4918925;29;20043;-66
2021/09/28 05:24:18;;;;;;;2.85;0.70;;;19.90;99.90;;;;;;4915890;29;20380;-66
2021/09/28 05:26:46;;;;;;;1.52;0.60;;;19.90;99.90;;;;;;4917843;29;20036;-66
2021/09/28 05:29:12;;;;;;;1.67;0.60;;;19.80;99.90;;;;;;4934713;29;20031;-67
2021/09/28 05:31:37;;;;;;;2.30;0.70;;;19.90;99.90;;;;;;4934180;29;20027;-66
2021/09/28 05:34:03;;;;;;;1.55;0.45;;;19.90;99.90;;;;;;4934522;29;20027;-66
2021/09/28 05:36:28;;;;;;;1.55;0.50;;;19.90;99.90;;;;;;4934195;29;20028;-67
2021/09/28 05:38:54;;;;;;;1.55;0.55;;;19.80;99.90;;;;;;4934574;29;20039;-67
2021/09/28 05:41:20;;;;;;;2.03;0.43;;;19.90;99.90;;;;;;4934505;29;20107;-73
2021/09/28 05:43:46;;;;;;;1.85;0.55;;;19.90;99.90;;;;;;4934335;29;20039;-67
2021/09/28 05:46:11;;;;;;;4.07;0.60;;;19.80;99.90;;;;;;4933924;29;20039;-67
2021/09/28 05:48:37;;;;;;;2.05;0.60;;;19.80;99.90;;;;;;4934035;29;20024;-65
2021/09/28 05:51:15;;;;;;;2.53;0.70;;;19.80;99.90;;;;;;4934564;29;20067;-66
2021/09/28 05:53:41;;;;;;;4.47;0.75;;;19.80;99.90;;;;;;4934448;29;20055;-67
2021/09/28 05:56:06;;;;;;;2.47;0.70;;;19.80;99.90;;;;;;4934052;29;20068;-66
2021/09/28 05:58:32;;;;;;;2.63;0.60;;;19.80;99.90;;;;;;4934348;29;20027;-66
2021/09/28 06:00:57;;;;;;;4.13;0.90;;;19.70;99.90;;;;;;4934472;29;20469;-67
2021/09/28 06:03:23;;;;;;;2.20;1.10;;;19.70;99.90;;;;;;4932669;29;20020;-67
2021/09/28 06:05:49;;;;;;;3.28;0.80;;;19.70;99.90;;;;;;4934186;29;20027;-67
2021/09/28 06:08:14;;;;;;;4.47;1.30;;;19.60;99.90;;;;;;4933434;29;20035;-68
2021/09/28 06:10:42;;;;;;;2.17;0.77;;;19.60;99.90;;;;;;4933738;29;20026;-67
2021/09/28 06:13:08;;;;;;;3.55;1.17;;;19.60;99.90;;;;;;4933393;29;20484;-67
2021/09/28 06:15:33;;;;;;;2.22;0.90;;;19.50;99.90;;;;;;4933561;29;20050;-68
2021/09/28 06:17:59;;;;;;;2.90;1.23;;;19.50;99.90;;;;;;4933960;29;20028;-68
2021/09/28 06:20:25;;;;;;;2.17;0.95;;;19.50;99.90;;;;;;4934538;29;20360;-67
2021/09/28 06:22:50;;;;;;;4.20;1.35;;;19.40;99.90;;;;;;4932435;29;20063;-68
2021/09/28 06:25:16;;;;;;;3.20;0.95;;;19.40;99.90;;;;;;4933928;29;20071;-68
2021/09/28 06:27:41;;;;;;;3.95;1.25;;;19.40;99.90;;;;;;4933928;29;20095;-68
2021/09/28 06:30:07;;;;;;;4.85;1.20;;;19.30;99.90;;;;;;4931508;29;20036;-61
2021/09/28 06:32:33;;;;;;;5.45;1.60;;;19.30;99.90;;;;;;4932420;29;20484;-61
2021/09/28 06:34:59;;;;;;;4.38;1.27;;;19.30;99.90;;;;;;4932679;29;20396;-62
2021/09/28 06:37:25;;;;;;;3.25;1.33;;;19.20;99.90;;;;;;4933018;29;20034;-61
2021/09/28 06:39:51;;;;;;;6.13;1.40;;;19.20;99.90;;;;;;4932799;29;20028;-62
2021/09/28 06:42:16;;;;;;;3.17;1.17;;;19.10;99.90;;;;;;4933480;29;20372;-62
2021/09/28 06:44:42;;;;;;;5.68;1.50;;;19.10;99.90;;;;;;4933770;29;20540;-62
2021/09/28 06:47:08;;;;;;;6.68;1.33;;;19.10;99.90;;;;;;4933863;29;20032;-63
2021/09/28 06:49:33;;;;;;;5.70;1.50;;;19.10;99.90;;;;;;4933123;29;20051;-64
2021/09/28 06:51:59;;;;;;;7.60;1.90;;;19.10;99.90;;;;;;4933832;29;20126;-65
2021/09/28 06:54:25;;;;;;;9.05;1.65;;;19.10;99.90;;;;;;4934097;29;20020;-63
2021/09/28 06:56:51;;;;;;;7.00;1.85;;;19.10;99.90;;;;;;4934228;29;20554;-65
2021/09/28 06:59:18;;;;;;;10.15;1.73;;;19.10;99.90;;;;;;4933947;29;20024;-66
2021/09/28 07:01:44;;;;;;;6.00;1.52;;;19.10;99.90;;;;;;4933687;29;20059;-63
2021/09/28 07:04:10;;;;;;;4.95;1.50;;;19.10;99.90;;;;;;4933796;29;20468;-63
2021/09/28 07:06:35;;;;;;;4.93;1.55;;;19.10;99.90;;;;;;4933577;29;20039;-64
2021/09/28 07:09:02;;;;;;;6.35;1.33;;;19.10;99.90;;;;;;4933895;29;20042;-63
2021/09/28 07:11:28;;;;;;;5.18;1.30;;;19.10;99.90;;;;;;4933835;29;20388;-64
2021/09/28 07:13:54;;;;;;;5.35;1.67;;;19.10;99.90;;;;;;4934120;29;20035;-63
2021/09/28 07:16:19;;;;;;;6.55;1.55;;;19.10;99.90;;;;;;4933759;29;20063;-63
2021/09/28 07:18:45;;;;;;;6.00;1.40;;;19.10;99.90;;;;;;4933481;29;20947;-64
2021/09/28 07:21:12;;;;;;;4.47;1.38;;;19.10;99.90;;;;;;4933763;29;20484;-64
2021/09/28 07:23:38;;;;;;;3.40;1.10;;;19.10;99.90;;;;;;4933513;29;20511;-64
2021/09/28 07:26:05;;;;;;;4.70;1.13;;;19.10;99.90;;;;;;4933647;29;20039;-64
2021/09/28 07:28:31;;;;;;;4.97;1.30;;;19.10;99.90;;;;;;4933425;29;20046;-64
2021/09/28 07:30:57;;;;;;;3.35;1.10;;;19.10;99.90;;;;;;4933662;29;20461;-64
2021/09/28 07:33:22;;;;;;;3.78;1.30;;;19.10;99.90;;;;;;4933835;29;20110;-64
2021/09/28 07:35:48;;;;;;;3.55;1.23;;;19.10;99.90;;;;;;4933280;29;20067;-64
2021/09/28 07:38:16;;;;;;;3.38;1.13;;;19.10;99.90;;;;;;4933552;29;20159;-63
2021/09/28 07:40:44;;;;;;;3.95;1.20;;;19.10;99.90;;;;;;4933396;29;20035;-64
2021/09/28 07:43:10;;;;;;;2.55;1.20;;;19.10;99.90;;;;;;4937043;29;20062;-64
2021/09/28 07:45:37;;;;;;;2.05;1.00;;;19.10;99.90;;;;;;4919651;29;20166;-64
2021/09/28 07:48:03;;;;;;;3.65;1.15;;;19.10;99.90;;;;;;4936756;29;20024;-64
2021/09/28 07:50:29;;;;;;;3.70;1.10;;;19.10;99.90;;;;;;4936597;29;20024;-63
2021/09/28 07:52:54;;;;;;;4.28;1.13;;;19.10;99.90;;;;;;4937096;29;20476;-63
2021/09/28 07:55:20;;;;;;;3.42;1.25;;;19.10;99.90;;;;;;4936657;29;20031;-64
2021/09/28 07:57:46;;;;;;;2.58;0.93;;;19.10;99.90;;;;;;4936518;29;20043;-63
2021/09/28 08:00:12;;;;;;;2.47;1.00;;;19.10;99.90;;;;;;4936663;29;20053;-63
2021/09/28 08:02:39;;;;;;;2.90;1.10;;;19.10;99.90;;;;;;4936343;29;20039;-64
2021/09/28 08:05:06;;;;;;;1.65;0.75;;;19.10;99.90;;;;;;4936615;29;20380;-63
2021/09/28 08:07:32;;;;;;;2.42;1.00;;;19.10;99.90;;;;;;4936519;29;20019;-65
2021/09/28 08:09:57;;;;;;;3.25;0.85;;;19.10;99.90;;;;;;4936613;29;20043;-64
2021/09/28 08:12:23;;;;;;;2.58;1.23;;;19.20;99.90;;;;;;4936776;29;20082;-64
2021/09/28 08:14:49;;;;;;;4.30;1.40;;;19.20;99.90;;;;;;4936143;29;20044;-64
2021/09/28 08:17:15;;;;;;;3.75;1.33;;;19.20;99.90;;;;;;4936369;29;20511;-65
2021/09/28 08:19:40;;;;;;;3.05;0.90;;;19.20;99.90;;;;;;4936086;29;20039;-64
2021/09/28 08:22:10;;;;;;;2.85;0.70;;;19.20;99.90;;;;;;4936323;29;20099;-64
2021/09/28 08:24:42;;;;;;;1.80;0.85;;;19.20;99.90;;;;;;4935894;29;20028;-63
2021/09/28 08:29:54;;;;;;;2.45;0.70;;;19.20;99.90;;;;;;4936681;29;20531;-66
2021/09/28 08:32:20;;;;;;;2.53;0.73;;;19.20;99.90;;;;;;4936303;29;20040;-64
2021/09/28 08:34:46;;;;;;;1.73;0.82;;;19.20;99.90;;;;;;4935775;29;20027;-64
2021/09/28 08:37:12;;;;;;;2.20;0.98;;;19.20;99.90;;;;;;4935947;29;20035;-65
2021/09/28 08:39:38;;;;;;;2.53;0.93;;;19.20;99.90;;;;;;4935857;29;20051;-63
2021/09/28 08:42:04;;;;;;;3.55;0.90;;;19.20;99.90;;;;;;4935968;29;20127;-63
2021/09/28 08:44:30;;;;;;;3.72;1.02;;;19.20;99.90;;;;;;4935679;29;20036;-64
2021/09/28 08:46:56;;;;;;;3.35;1.10;;;19.20;99.90;;;;;;4935940;29;20036;-63
2021/09/28 08:49:22;;;;;;;2.45;0.80;;;19.30;99.90;;;;;;4936170;29;20034;-64
2021/09/28 08:51:49;;;;;;;1.98;0.75;;;19.30;99.90;;;;;;4935600;29;20107;-63
2021/09/28 08:54:16;;;;;;;1.77;0.70;;;19.30;99.90;;;;;;4935103;29;20030;-63
2021/09/28 08:56:42;;;;;;;2.45;0.80;;;19.30;99.90;;;;;;4935322;29;20480;-65
2021/09/28 08:59:08;;;;;;;2.00;0.80;;;19.30;99.90;;;;;;4935560;29;20024;-65
2021/09/28 09:01:37;;;;;;;2.40;0.85;;;19.30;99.90;;;;;;4935285;29;20086;-64
2021/09/28 09:04:21;;;;;;;2.70;1.08;;;19.30;99.90;;;;;;4935570;29;20015;-64
2021/09/28 09:06:48;;;;;;;2.03;0.80;;;19.30;99.90;;;;;;4935181;29;20028;-63
2021/09/28 09:09:15;;;;;;;2.88;0.90;;;19.30;99.90;;;;;;4935384;29;20032;-65
2021/09/28 09:11:46;;;;;;;3.05;0.88;;;19.30;99.90;;;;;;4935272;29;20432;-64
2021/09/28 09:14:12;;;;;;;2.78;0.80;;;19.30;99.90;;;;;;4935466;29;20028;-65
2021/09/28 09:16:38;;;;;;;1.98;0.85;;;19.40;99.90;;;;;;4935155;29;20094;-64
2021/09/28 09:19:16;;;;;;;2.97;0.90;;;19.40;99.90;;;;;;4935191;29;20110;-63
2021/09/28 09:21:58;;;;;;;2.20;0.80;;;19.40;99.90;;;;;;4934833;29;20027;-64
2021/09/28 09:24:41;;;;;;;2.35;0.90;;;19.40;99.90;;;;;;4935337;29;20023;-66
2021/09/28 09:27:11;;;;;;;2.38;0.80;;;19.40;99.90;;;;;;4935152;29;20031;-65
2021/09/28 09:29:37;;;;;;;2.20;0.90;;;19.40;99.90;;;;;;4934736;29;20047;-66
2021/09/28 09:32:03;;;;;;;2.58;0.80;;;19.40;99.90;;;;;;4934933;29;20020;-66
2021/09/28 09:34:28;;;;;;;1.38;0.60;;;19.50;99.90;;;;;;4934566;29;20034;-64
2021/09/28 09:36:56;;;;;;;2.72;1.10;;;19.50;99.90;;;;;;4935255;29;20038;-66
2021/09/28 09:39:22;;;;;;;2.97;1.20;;;19.50;99.90;;;;;;4935116;29;20066;-64
2021/09/28 09:42:07;;;;;;;2.65;0.80;;;19.50;99.90;;;;;;4934723;29;20027;-64
2021/09/28 09:44:33;;;;;;;2.05;0.70;;;19.50;99.90;;;;;;4934690;29;20031;-68
2021/09/28 09:47:00;;;;;;;3.35;0.60;;;19.50;99.90;;;;;;4934677;29;20488;-65
2021/09/28 09:49:31;;;;;;;1.67;0.80;;;19.50;99.90;;;;;;4934764;29;20083;-65
2021/09/28 09:52:11;;;;;;;2.90;1.10;;;19.50;99.90;;;;;;4934653;29;20477;-65
2021/09/28 09:54:42;;;;;;;1.90;1.00;;;19.60;99.90;;;;;;4934341;29;20027;-64
2021/09/28 09:57:10;;;;;;;1.58;0.50;;;19.60;99.90;;;;;;4934552;29;20074;-64
2021/09/28 09:59:37;;;;;;;1.80;0.85;;;19.60;99.90;;;;;;4934092;29;20054;-64
2021/09/28 10:02:04;;;;;;;1.30;0.80;;;19.60;99.90;;;;;;4934482;29;20036;-64
2021/09/28 10:04:30;;;;;;;1.92;0.85;;;19.60;99.90;;;;;;4933581;29;20108;-64
2021/09/28 10:06:56;;;;;;;1.30;0.60;;;19.60;99.90;;;;;;4917410;29;20038;-64
2021/09/28 10:09:29;;;;;;;2.22;0.82;;;19.60;99.90;;;;;;4934787;29;20477;-64
2021/09/28 10:12:01;;;;;;;2.78;0.70;;;19.70;99.90;;;;;;4934619;29;20047;-64
2021/09/28 10:14:34;;;;;;;1.45;0.60;;;19.60;99.90;;;;;;4934279;29;20095;-64
2021/09/28 10:17:01;;;;;;;2.63;0.70;;;19.70;99.90;;;;;;4934545;29;20032;-64
2021/09/28 10:19:27;;;;;;;2.13;0.57;;;19.70;99.90;;;;;;4934151;29;20563;-64
2021/09/28 10:21:54;;;;;;;2.15;0.70;;;19.70;99.90;;;;;;4934591;29;20111;-65
2021/09/28 10:24:33;;;;;;;2.13;0.80;;;19.70;99.90;;;;;;4933789;29;20019;-62
2021/09/28 10:26:58;;;;;;;1.80;0.82;;;19.80;99.90;;;;;;4924526;29;20032;-62
2021/09/28 10:29:46;;;;;;;1.52;0.60;;;19.80;99.90;;;;;;4933975;29;20038;-62
2021/09/28 10:32:24;;;;;;;2.15;0.80;;;19.80;99.90;;;;;;4933694;29;20032;-62
2021/09/28 10:35:05;;;;;;;2.03;0.65;;;19.80;99.90;;;;;;4932920;29;20032;-62
2021/09/28 10:37:43;;;;;;;2.97;0.70;;;19.80;99.90;;;;;;4933861;29;20038;-62
2021/09/28 10:40:14;;;;;;;1.85;0.55;;;19.90;99.90;;;;;;4934090;29;20056;-62
2021/09/28 10:43:00;;;;;;;2.63;0.70;;;19.90;99.90;;;;;;4933664;29;20432;-61
2021/09/28 10:45:29;;;;;;;2.47;0.70;;;19.90;99.90;;;;;;4934033;29;20066;-62
2021/09/28 10:48:06;;;;;;;2.83;0.80;;;19.90;99.90;;;;;;4934259;29;20041;-62
2021/09/28 10:50:39;;;;;;;1.85;0.60;;;20.00;99.90;;;;;;4933752;29;20032;-62
2021/09/28 10:53:20;;;;;;;2.58;0.80;;;20.00;99.90;;;;;;4934310;29;20412;-62
2021/09/28 10:56:06;;;;;;;2.15;0.77;;;20.00;99.90;;;;;;4933537;29;20635;-63
2021/09/28 10:58:55;;;;;;;2.20;0.80;;;20.00;99.90;;;;;;4914323;29;20079;-62
2021/09/28 11:01:23;;;;;;;2.33;0.80;;;20.00;99.90;;;;;;4933664;29;20038;-62
2021/09/28 11:03:55;;;;;;;1.88;0.70;;;20.10;99.90;;;;;;4932093;29;20050;-62
2021/09/28 11:06:41;;;;;;;1.90;0.50;;;20.10;99.90;;;;;;4932715;29;20032;-61
2021/09/28 11:09:07;;;;;;;2.30;0.77;;;20.10;99.90;;;;;;4930039;29;20455;-62
2021/09/28 11:11:33;;;;;;;2.50;0.63;;;20.10;99.90;;;;;;4932280;29;20032;-63
2021/09/28 11:14:04;;;;;;;1.77;0.63;;;20.20;99.90;;;;;;4932473;29;20078;-66
2021/09/28 11:16:41;;;;;;;2.08;0.68;;;20.20;99.90;;;;;;4931338;29;20036;-63
2021/09/28 11:19:07;;;;;;;1.88;0.70;;;20.20;99.90;;;;;;4933907;29;20054;-63
2021/09/28 11:21:43;;;;;;;1.92;0.70;;;20.20;99.90;;;;;;4936762;29;20035;-64
2021/09/28 11:24:11;;;;;;;1.77;0.75;;;20.30;99.90;;;;;;4936832;29;20055;-63
2021/09/28 11:26:42;;;;;;;3.60;0.70;;;20.30;99.90;;;;;;4936819;29;20043;-63
2021/09/28 11:29:10;;;;;;;2.58;0.80;;;20.30;99.90;;;;;;4935993;29;20392;-63
2021/09/28 11:31:42;;;;;;;3.22;0.90;;;20.30;99.90;;;;;;4936160;29;20055;-63
2021/09/28 11:34:08;;;;;;;2.33;0.77;;;20.40;99.90;;;;;;4936336;29;20028;-62
2021/09/28 11:36:38;;;;;;;1.63;0.60;;;20.40;99.90;;;;;;4936679;29;20040;-64
2021/09/28 11:39:07;;;;;;;3.13;0.65;;;20.40;99.90;;;;;;4937324;29;20416;-64
2021/09/28 11:41:37;;;;;;;2.30;0.57;;;20.40;99.90;;;;;;4936035;29;20086;-64
2021/09/28 11:44:04;;;;;;;3.72;0.70;;;20.50;99.90;;;;;;4935934;29;20333;-63
2021/09/28 11:46:32;;;;;;;2.22;0.60;;;20.50;99.90;;;;;;4935564;29;20086;-64
2021/09/28 11:49:07;;;;;;;4.18;0.80;;;20.50;99.90;;;;;;4936115;29;20024;-63
2021/09/28 11:51:37;;;;;;;1.58;0.50;;;20.50;99.90;;;;;;4936913;29;20032;-63
2021/09/28 11:54:10;;;;;;;1.42;0.57;;;20.60;99.90;;;;;;4935561;29;20042;-64
2021/09/28 11:56:41;;;;;;;1.25;0.50;;;20.60;99.90;;;;;;4936558;29;20038;-62
2021/09/28 11:59:11;;;;;;;1.35;0.60;;;20.60;99.90;;;;;;4936331;29;20061;-62
2021/09/28 12:01:37;;;;;;;1.63;0.65;;;20.70;99.90;;;;;;4934828;29;20027;-64
2021/09/28 12:09:34;;;;;;;1.90;0.70;;;20.80;99.90;;;;;;4936378;29;20023;-64
2021/09/28 12:12:01;;;;;;;1.90;0.60;;;20.80;99.90;;;;;;4935262;29;20102;-63
2021/09/28 12:14:54;;;;;;;3.42;0.60;;;20.80;99.90;;;;;;4935690;29;20030;-63
2021/09/28 12:17:41;;;;;;;2.10;0.60;;;20.90;99.90;;;;;;4934124;29;20094;-63
2021/09/28 12:20:21;;;;;;;1.75;0.60;;;20.90;99.90;;;;;;4936449;29;20027;-62
2021/09/28 12:22:55;;;;;;;1.83;0.60;;;20.90;99.90;;;;;;4936128;29;20028;-63
2021/09/28 12:25:26;;;;;;;1.00;0.60;;;21.00;99.90;;;;;;4936248;29;20055;-64
2021/09/28 12:28:13;;;;;;;1.90;0.70;;;21.00;99.90;;;;;;4935758;29;20040;-63
2021/09/28 12:30:50;;;;;;;1.00;0.47;;;21.00;99.90;;;;;;4936018;29;20107;-62
2021/09/28 12:33:16;;;;;;;1.58;0.60;;;21.10;99.90;;;;;;4936202;29;20373;-63
2021/09/28 12:35:42;;;;;;;1.65;0.55;;;21.10;99.90;;;;;;4935803;29;20047;-63
2021/09/28 12:38:11;;;;;;;1.13;0.50;;;21.10;99.90;;;;;;4936065;29;20047;-63
2021/09/28 12:40:44;;;;;;;1.08;0.50;;;21.10;99.90;;;;;;4936074;29;20036;-63
2021/09/28 12:43:16;;;;;;;1.30;0.50;;;21.20;99.90;;;;;;4919225;29;20424;-64
2021/09/28 12:45:55;;;;;;;2.20;0.60;;;21.20;99.90;;;;;;4935852;29;20039;-63
2021/09/28 12:48:45;;;;;;;2.83;0.75;;;21.20;99.90;;;;;;4936174;29;20103;-63
2021/09/28 12:51:18;;;;;;;1.15;0.50;;;21.30;99.90;;;;;;4936048;29;20036;-63
2021/09/28 12:53:44;;;;;;;2.08;0.50;;;21.30;99.90;;;;;;4935645;29;20027;-63
2021/09/28 12:56:09;;;;;;;2.70;0.80;;;21.40;99.90;;;;;;4935710;29;20118;-63
2021/09/28 12:58:35;;;;;;;1.80;0.60;;;21.40;99.90;;;;;;4935407;29;20028;-64